sensor_id;sensor_type;location;lat;lon;timestamp;P1;P2;P0
72918;PMS7003;61063;55.700;26.994;2022-09-29T00:04:12;5.8;4.8;4
72918;PMS7003;61063;55.700;26.994;2022-09-29T00:09:00;5.7;5;4
72918;PMS7003;61063;55.700;26.994;2022-09-29T00:13:40;5.6;4.8;3.9
72918;PMS7003;61063;55.700;26.994;2022-09-29T00:18:58;4.8;4.2;3.5
72918;PMS7003;61063;55.700;26.994;2022-09-29T00:24:02;4.2;3.6;2.7
72918;PMS7003;61063;55.700;26.994;2022-09-29T00:29:10;5.3;4.6;3.5
72918;PMS7003;61063;55.700;26.994;2022-09-29T00:34:12;5.5;4.3;3.5
72918;PMS7003;61063;55.700;26.994;2022-09-29T00:38:44;4.2;3.9;3.1
72918;PMS7003;61063;55.700;26.994;2022-09-29T00:49:02;3.8;3.1;2.6
72918;PMS7003;61063;55.700;26.994;2022-09-29T00:53:56;3;2.7;2.2
72918;PMS7003;61063;55.700;26.994;2022-09-29T00:59:11;4.5;3.9;3
72918;PMS7003;61063;55.700;26.994;2022-09-29T01:04:05;3.4;2.8;2.2
72918;PMS7003;61063;55.700;26.994;2022-09-29T01:09:05;3;2.7;2.3
72918;PMS7003;61063;55.700;26.994;2022-09-29T01:14:00;2.8;2.4;1.9
72918;PMS7003;61063;55.700;26.994;2022-09-29T01:19:14;2.6;2.1;1.8
72918;PMS7003;61063;55.700;26.994;2022-09-29T01:29:23;3.7;2.8;2.3
72918;PMS7003;61063;55.700;26.994;2022-09-29T01:33:59;3.4;2.7;2.3
72918;PMS7003;61063;55.700;26.994;2022-09-29T01:39:30;2.9;2.3;1.9
72918;PMS7003;61063;55.700;26.994;2022-09-29T01:44:21;2.5;2.2;1.8
72918;PMS7003;61063;55.700;26.994;2022-09-29T01:49:14;2.6;2;1.7
72918;PMS7003;61063;55.700;26.994;2022-09-29T01:54:13;2.9;2.7;2.2
72918;PMS7003;61063;55.700;26.994;2022-09-29T01:59:13;2.7;2.2;1.8
72918;PMS7003;61063;55.700;26.994;2022-09-29T02:03:40;2.8;2.3;1.9
72918;PMS7003;61063;55.700;26.994;2022-09-29T02:08:50;3.3;2.3;2
72918;PMS7003;61063;55.700;26.994;2022-09-29T02:14:19;2.1;1.9;1.7
72918;PMS7003;61063;55.700;26.994;2022-09-29T02:19:07;2.5;1.9;1.6
72918;PMS7003;61063;55.700;26.994;2022-09-29T02:23:46;3;2.6;2.2
72918;PMS7003;61063;55.700;26.994;2022-09-29T02:28:58;2.7;2.1;1.7
72918;PMS7003;61063;55.700;26.994;2022-09-29T02:33:58;2.5;2.1;1.7
72918;PMS7003;61063;55.700;26.994;2022-09-29T02:44:20;2.8;2.3;1.9
72918;PMS7003;61063;55.700;26.994;2022-09-29T02:49:34;3.3;2.5;2
72918;PMS7003;61063;55.700;26.994;2022-09-29T02:54:24;2.7;2.2;1.8
72918;PMS7003;61063;55.700;26.994;2022-09-29T02:59:14;2.5;2.1;1.8
72918;PMS7003;61063;55.700;26.994;2022-09-29T03:04:14;2.1;1.4;1.2
72918;PMS7003;61063;55.700;26.994;2022-09-29T03:09:18;2.5;2.1;1.8
72918;PMS7003;61063;55.700;26.994;2022-09-29T03:13:46;2.3;2.1;1.6
72918;PMS7003;61063;55.700;26.994;2022-09-29T03:19:16;2.1;1.9;1.5
72918;PMS7003;61063;55.700;26.994;2022-09-29T03:24:02;2.3;1.9;1.5
72918;PMS7003;61063;55.700;26.994;2022-09-29T03:28:58;2.2;1.6;1.3
72918;PMS7003;61063;55.700;26.994;2022-09-29T03:34:10;2;1.6;1.4
72918;PMS7003;61063;55.700;26.994;2022-09-29T03:39:06;2.2;2;1.6
72918;PMS7003;61063;55.700;26.994;2022-09-29T03:44:06;2.7;2.2;1.8
72918;PMS7003;61063;55.700;26.994;2022-09-29T03:49:04;2.6;2.1;1.8
72918;PMS7003;61063;55.700;26.994;2022-09-29T03:54:18;2.5;2;1.7
72918;PMS7003;61063;55.700;26.994;2022-09-29T03:59:18;2.3;2;1.7
72918;PMS7003;61063;55.700;26.994;2022-09-29T04:04:18;2.5;1.7;1.3
72918;PMS7003;61063;55.700;26.994;2022-09-29T04:09:16;2.5;2.1;1.7
72918;PMS7003;61063;55.700;26.994;2022-09-29T04:13:44;2.5;2;1.7
72918;PMS7003;61063;55.700;26.994;2022-09-29T04:19:14;2.3;1.6;1.1
72918;PMS7003;61063;55.700;26.994;2022-09-29T04:23:48;2.4;1.8;1.5
72918;PMS7003;61063;55.700;26.994;2022-09-29T04:29:10;2.6;2.1;1.6
72918;PMS7003;61063;55.700;26.994;2022-09-29T04:34:18;2.7;2;1.6
72918;PMS7003;61063;55.700;26.994;2022-09-29T04:39:00;2.7;1.9;1.5
72918;PMS7003;61063;55.700;26.994;2022-09-29T04:43:36;1.9;1.8;1.4
72918;PMS7003;61063;55.700;26.994;2022-09-29T04:49:18;3.1;1.9;1.5
72918;PMS7003;61063;55.700;26.994;2022-09-29T04:54:18;2.6;1.9;1.5
72918;PMS7003;61063;55.700;26.994;2022-09-29T04:58:56;3.2;2.2;1.9
72918;PMS7003;61063;55.700;26.994;2022-09-29T05:03:58;2.8;2.1;1.8
72918;PMS7003;61063;55.700;26.994;2022-09-29T05:09:18;2.4;2;1.4
72918;PMS7003;61063;55.700;26.994;2022-09-29T05:14:16;3.2;2.4;2
72918;PMS7003;61063;55.700;26.994;2022-09-29T05:19:00;3.3;2.5;2
72918;PMS7003;61063;55.700;26.994;2022-09-29T05:24:18;2.8;2.5;1.8
72918;PMS7003;61063;55.700;26.994;2022-09-29T05:29:18;3.3;2.8;2.3
72918;PMS7003;61063;55.700;26.994;2022-09-29T05:34:16;3.4;2.6;2.2
72918;PMS7003;61063;55.700;26.994;2022-09-29T05:38:36;4.3;3.1;2.4
72918;PMS7003;61063;55.700;26.994;2022-09-29T05:43:46;3.5;3.3;2.7
72918;PMS7003;61063;55.700;26.994;2022-09-29T05:49:22;4.2;3.6;3
72918;PMS7003;61063;55.700;26.994;2022-09-29T05:53:56;5;4;3.3
72918;PMS7003;61063;55.700;26.994;2022-09-29T05:58:46;5.3;4.1;3.3
72918;PMS7003;61063;55.700;26.994;2022-09-29T06:04:18;4.2;3.4;2.7
72918;PMS7003;61063;55.700;26.994;2022-09-29T06:09:04;3.6;3.1;2.6
72918;PMS7003;61063;55.700;26.994;2022-09-29T06:13:49;3;2.5;2
72918;PMS7003;61063;55.700;26.994;2022-09-29T06:19:06;3;2.3;1.9
72918;PMS7003;61063;55.700;26.994;2022-09-29T06:24:14;2;2;1.6
72918;PMS7003;61063;55.700;26.994;2022-09-29T06:28:48;2.8;2.3;1.9
72918;PMS7003;61063;55.700;26.994;2022-09-29T06:34:20;2.7;2.4;1.8
72918;PMS7003;61063;55.700;26.994;2022-09-29T06:39:22;2.8;2.1;1.8
72918;PMS7003;61063;55.700;26.994;2022-09-29T06:44:21;2.1;2.1;1.7
72918;PMS7003;61063;55.700;26.994;2022-09-29T06:49:20;2.8;1.8;1.5
72918;PMS7003;61063;55.700;26.994;2022-09-29T06:54:02;2.3;2.1;1.6
72918;PMS7003;61063;55.700;26.994;2022-09-29T06:59:20;2.9;2.3;1.7
72918;PMS7003;61063;55.700;26.994;2022-09-29T07:04:10;3.5;2.6;1.9
72918;PMS7003;61063;55.700;26.994;2022-09-29T07:08:56;2.8;2.5;2.1
72918;PMS7003;61063;55.700;26.994;2022-09-29T07:14:20;2.4;1.9;1.5
72918;PMS7003;61063;55.700;26.994;2022-09-29T07:19:20;3.2;2.1;1.6
72918;PMS7003;61063;55.700;26.994;2022-09-29T07:23:38;2.8;2.2;1.6
72918;PMS7003;61063;55.700;26.994;2022-09-29T07:28:54;3.2;2.1;1.5
72918;PMS7003;61063;55.700;26.994;2022-09-29T07:33:56;3.8;3.4;2.7
72918;PMS7003;61063;55.700;26.994;2022-09-29T07:39:20;5.5;4.7;3.9
72918;PMS7003;61063;55.700;26.994;2022-09-29T07:44:08;4.4;4;3.1
72918;PMS7003;61063;55.700;26.994;2022-09-29T07:49:00;5.3;4.3;3.6
72918;PMS7003;61063;55.700;26.994;2022-09-29T07:54:01;4.4;3.7;2.9
72918;PMS7003;61063;55.700;26.994;2022-09-29T07:59:06;5.7;4.3;3.6
72918;PMS7003;61063;55.700;26.994;2022-09-29T08:04:16;5.4;3.6;2.8
72918;PMS7003;61063;55.700;26.994;2022-09-29T08:08:38;5;3.6;2.9
72918;PMS7003;61063;55.700;26.994;2022-09-29T08:13:49;4.3;3.3;2.8
72918;PMS7003;61063;55.700;26.994;2022-09-29T08:18:38;3.2;2.7;2.3
72918;PMS7003;61063;55.700;26.994;2022-09-29T08:24:06;2.9;2.6;1.9
72918;PMS7003;61063;55.700;26.994;2022-09-29T08:29:00;4;3.2;2.4
72918;PMS7003;61063;55.700;26.994;2022-09-29T08:34:12;3.8;3.1;2.4
72918;PMS7003;61063;55.700;26.994;2022-09-29T08:39:06;4.1;3.2;2.4
72918;PMS7003;61063;55.700;26.994;2022-09-29T08:44:10;4.7;3.5;2.8
72918;PMS7003;61063;55.700;26.994;2022-09-29T08:49:05;4.1;3.3;2.7
72918;PMS7003;61063;55.700;26.994;2022-09-29T08:54:21;4.4;3.6;2.8
72918;PMS7003;61063;55.700;26.994;2022-09-29T08:58:48;4.5;3.3;2.6
72918;PMS7003;61063;55.700;26.994;2022-09-29T09:03:51;5.9;5.3;4.4
72918;PMS7003;61063;55.700;26.994;2022-09-29T09:08:54;6.6;5.3;4.4
72918;PMS7003;61063;55.700;26.994;2022-09-29T09:15:34;5.9;4.8;3.9
72918;PMS7003;61063;55.700;26.994;2022-09-29T09:19:26;4.3;3.8;3.1
72918;PMS7003;61063;55.700;26.994;2022-09-29T09:24:25;4.8;4;3.4
72918;PMS7003;61063;55.700;26.994;2022-09-29T09:29:23;3.5;2.9;2.3
72918;PMS7003;61063;55.700;26.994;2022-09-29T09:34:13;3.3;2.9;2.5
72918;PMS7003;61063;55.700;26.994;2022-09-29T09:38:58;2.9;2.5;1.9
72918;PMS7003;61063;55.700;26.994;2022-09-29T09:44:00;14.7;12.2;9.6
72918;PMS7003;61063;55.700;26.994;2022-09-29T09:48:57;7.4;6.1;5.4
72918;PMS7003;61063;55.700;26.994;2022-09-29T09:53:48;6.9;6;4.8
72918;PMS7003;61063;55.700;26.994;2022-09-29T09:58:54;5;4.6;3.7
72918;PMS7003;61063;55.700;26.994;2022-09-29T10:03:48;4.2;3.2;2.5
72918;PMS7003;61063;55.700;26.994;2022-09-29T10:09:18;4.3;3.5;2.9
72918;PMS7003;61063;55.700;26.994;2022-09-29T10:14:08;4.3;3.5;2.8
72918;PMS7003;61063;55.700;26.994;2022-09-29T10:19:06;4.6;4.1;3.3
72918;PMS7003;61063;55.700;26.994;2022-09-29T10:23:52;5.6;4.7;3.8
72918;PMS7003;61063;55.700;26.994;2022-09-29T10:29:17;5.8;5.4;4.4
72918;PMS7003;61063;55.700;26.994;2022-09-29T10:34:21;5.5;4.3;3.5
72918;PMS7003;61063;55.700;26.994;2022-09-29T10:38:49;5;4.4;3.5
72918;PMS7003;61063;55.700;26.994;2022-09-29T10:43:50;5.4;4.5;3.6
72918;PMS7003;61063;55.700;26.994;2022-09-29T10:49:25;4.2;3.4;2.8
72918;PMS7003;61063;55.700;26.994;2022-09-29T10:54:24;4.5;3.7;2.9
72918;PMS7003;61063;55.700;26.994;2022-09-29T10:59:02;4.6;3.4;2.7
72918;PMS7003;61063;55.700;26.994;2022-09-29T11:04:05;9.7;8.6;6.6
72918;PMS7003;61063;55.700;26.994;2022-09-29T11:09:05;33.5;27.7;18.6
72918;PMS7003;61063;55.700;26.994;2022-09-29T11:14:31;15.9;13.2;9.4
72918;PMS7003;61063;55.700;26.994;2022-09-29T11:18:47;6.4;4.9;4
72918;PMS7003;61063;55.700;26.994;2022-09-29T11:24:19;5.7;5.2;4.3
72918;PMS7003;61063;55.700;26.994;2022-09-29T11:29:26;7.5;6.2;4.7
72918;PMS7003;61063;55.700;26.994;2022-09-29T11:34:11;8.2;6.4;4.8
72918;PMS7003;61063;55.700;26.994;2022-09-29T11:39:10;7;5.9;4.8
72918;PMS7003;61063;55.700;26.994;2022-09-29T11:44:42;7.4;6.6;5
72918;PMS7003;61063;55.700;26.994;2022-09-29T11:49:24;7;5.9;4.5
72918;PMS7003;61063;55.700;26.994;2022-09-29T11:54:35;7.2;5.8;4.5
72918;PMS7003;61063;55.700;26.994;2022-09-29T12:00:11;7.6;6.3;4.8
72918;PMS7003;61063;55.700;26.994;2022-09-29T12:04:18;7.8;6.4;5
72918;PMS7003;61063;55.700;26.994;2022-09-29T12:14:25;8;6.9;5.2
72918;PMS7003;61063;55.700;26.994;2022-09-29T12:19:25;8.4;6.7;5.2
72918;PMS7003;61063;55.700;26.994;2022-09-29T12:23:50;7.4;5.9;4.5
72918;PMS7003;61063;55.700;26.994;2022-09-29T12:29:20;8.4;6.7;5.3
72918;PMS7003;61063;55.700;26.994;2022-09-29T12:33:59;9;7.2;5.6
72918;PMS7003;61063;55.700;26.994;2022-09-29T12:39:02;8.7;7.4;5.7
72918;PMS7003;61063;55.700;26.994;2022-09-29T12:44:59;9.1;7.7;5.8
72918;PMS7003;61063;55.700;26.994;2022-09-29T12:49:27;8.4;7;5.5
72918;PMS7003;61063;55.700;26.994;2022-09-29T12:54:44;8.9;7.5;5.9
72918;PMS7003;61063;55.700;26.994;2022-09-29T12:59:38;8.6;7.7;5.8
72918;PMS7003;61063;55.700;26.994;2022-09-29T13:04:30;8.8;7.6;6.1
72918;PMS7003;61063;55.700;26.994;2022-09-29T13:24:34;8;7.2;5.6
72918;PMS7003;61063;55.700;26.994;2022-09-29T13:29:24;7.3;6.5;5.1
72918;PMS7003;61063;55.700;26.994;2022-09-29T13:34:03;6.8;5.9;4.4
72918;PMS7003;61063;55.700;26.994;2022-09-29T13:39:00;7.5;6.1;4.8
72918;PMS7003;61063;55.700;26.994;2022-09-29T13:44:26;8.2;7.2;5.7
72918;PMS7003;61063;55.700;26.994;2022-09-29T13:49:24;7.7;6.9;5.6
72918;PMS7003;61063;55.700;26.994;2022-09-29T13:54:12;7.8;6.3;4.9
72918;PMS7003;61063;55.700;26.994;2022-09-29T13:59:20;7;5.7;4.6
72918;PMS7003;61063;55.700;26.994;2022-09-29T14:03:48;5.6;5.1;4.2
72918;PMS7003;61063;55.700;26.994;2022-09-29T14:08:52;5.9;5.2;4.1
72918;PMS7003;61063;55.700;26.994;2022-09-29T14:14:24;7.1;5.8;4.7
72918;PMS7003;61063;55.700;26.994;2022-09-29T14:19:21;5.8;5.3;4.1
72918;PMS7003;61063;55.700;26.994;2022-09-29T14:24:43;7.2;5.7;4.7
72918;PMS7003;61063;55.700;26.994;2022-09-29T14:29:10;7.4;6.1;4.7
72918;PMS7003;61063;55.700;26.994;2022-09-29T14:34:14;6.7;5.8;4.7
72918;PMS7003;61063;55.700;26.994;2022-09-29T14:39:14;7.4;5.9;4.7
72918;PMS7003;61063;55.700;26.994;2022-09-29T14:44:25;6.3;5.5;4.4
72918;PMS7003;61063;55.700;26.994;2022-09-29T14:54:10;7.5;6.1;5
72918;PMS7003;61063;55.700;26.994;2022-09-29T14:59:30;6.9;6.1;5
72918;PMS7003;61063;55.700;26.994;2022-09-29T15:04:10;6.7;5.7;4.5
72918;PMS7003;61063;55.700;26.994;2022-09-29T15:08:53;6.1;5.1;3.9
72918;PMS7003;61063;55.700;26.994;2022-09-29T15:14:27;5.8;5;4
72918;PMS7003;61063;55.700;26.994;2022-09-29T15:19:34;6.6;4.9;3.8
72918;PMS7003;61063;55.700;26.994;2022-09-29T15:29:05;5;4.2;3.4
72918;PMS7003;61063;55.700;26.994;2022-09-29T15:34:24;4.5;4;3.1
72918;PMS7003;61063;55.700;26.994;2022-09-29T15:39:39;1.7;1.2;0.9
72918;PMS7003;61063;55.700;26.994;2022-09-29T15:43:53;1.2;0.6;0.5
72918;PMS7003;61063;55.700;26.994;2022-09-29T15:49:27;0.5;0.1;0.1
72918;PMS7003;61063;55.700;26.994;2022-09-29T15:53:50;0.4;0.2;0.2
72918;PMS7003;61063;55.700;26.994;2022-09-29T15:59:16;0.3;0.3;0.2
72918;PMS7003;61063;55.700;26.994;2022-09-29T16:04:04;0.5;0.2;0.1
72918;PMS7003;61063;55.700;26.994;2022-09-29T16:09:18;0.3;0.1;0
72918;PMS7003;61063;55.700;26.994;2022-09-29T16:14:27;0.4;0;0
72918;PMS7003;61063;55.700;26.994;2022-09-29T16:19:15;0.2;0.1;0.1
72918;PMS7003;61063;55.700;26.994;2022-09-29T16:24:16;0.2;0.2;0.1
72918;PMS7003;61063;55.700;26.994;2022-09-29T16:29:27;0.4;0.2;0.2
72918;PMS7003;61063;55.700;26.994;2022-09-29T16:33:51;0.3;0.2;0.1
72918;PMS7003;61063;55.700;26.994;2022-09-29T16:39:08;0.3;0.1;0.1
72918;PMS7003;61063;55.700;26.994;2022-09-29T16:44:01;0.4;0.1;0.1
72918;PMS7003;61063;55.700;26.994;2022-09-29T16:49:25;0.1;0;0
72918;PMS7003;61063;55.700;26.994;2022-09-29T16:54:27;0.5;0.2;0.1
72918;PMS7003;61063;55.700;26.994;2022-09-29T16:59:13;0.3;0.2;0.2
72918;PMS7003;61063;55.700;26.994;2022-09-29T17:04:24;1;0.4;0.3
72918;PMS7003;61063;55.700;26.994;2022-09-29T17:09:18;0.5;0.4;0.3
72918;PMS7003;61063;55.700;26.994;2022-09-29T17:13:54;1.3;0.9;0.8
72918;PMS7003;61063;55.700;26.994;2022-09-29T17:18:57;1.2;0.6;0.5
72918;PMS7003;61063;55.700;26.994;2022-09-29T17:24:26;1;0.7;0.5
72918;PMS7003;61063;55.700;26.994;2022-09-29T17:28:50;1.1;0.9;0.7
72918;PMS7003;61063;55.700;26.994;2022-09-29T17:33:58;1.3;0.8;0.6
72918;PMS7003;61063;55.700;26.994;2022-09-29T17:39:24;1.4;1;0.8
72918;PMS7003;61063;55.700;26.994;2022-09-29T17:44:24;1.1;1.1;1
72918;PMS7003;61063;55.700;26.994;2022-09-29T17:49:02;1.2;1;0.8
72918;PMS7003;61063;55.700;26.994;2022-09-29T17:54:02;1.5;1;0.8
72918;PMS7003;61063;55.700;26.994;2022-09-29T17:59:06;1.6;0.9;0.8
72918;PMS7003;61063;55.700;26.994;2022-09-29T18:04:24;1.5;1;0.8
72918;PMS7003;61063;55.700;26.994;2022-09-29T18:09:24;1.6;1.4;1.2
72918;PMS7003;61063;55.700;26.994;2022-09-29T18:14:26;1.9;1.3;1.2
72918;PMS7003;61063;55.700;26.994;2022-09-29T18:19:05;1.6;1.3;1.1
72918;PMS7003;61063;55.700;26.994;2022-09-29T18:24:26;1.7;1.3;1.1
72918;PMS7003;61063;55.700;26.994;2022-09-29T18:29:12;1.2;1;0.8
72918;PMS7003;61063;55.700;26.994;2022-09-29T18:34:00;1.4;1.2;0.9
72918;PMS7003;61063;55.700;26.994;2022-09-29T18:39:14;1.9;1.5;1.3
72918;PMS7003;61063;55.700;26.994;2022-09-29T18:44:12;1.9;1.4;1.1
72918;PMS7003;61063;55.700;26.994;2022-09-29T18:49:11;2.2;1.8;1.4
72918;PMS7003;61063;55.700;26.994;2022-09-29T18:54:06;1;1;0.8
72918;PMS7003;61063;55.700;26.994;2022-09-29T18:59:22;1.4;0.9;0.7
72918;PMS7003;61063;55.700;26.994;2022-09-29T19:03:50;1.2;1.2;0.9
72918;PMS7003;61063;55.700;26.994;2022-09-29T19:09:24;1.7;1;0.8
72918;PMS7003;61063;55.700;26.994;2022-09-29T19:13:54;1.5;1.1;0.9
72918;PMS7003;61063;55.700;26.994;2022-09-29T19:19:25;1.6;1.3;1.1
72918;PMS7003;61063;55.700;26.994;2022-09-29T19:24:22;1.5;1.1;0.8
72918;PMS7003;61063;55.700;26.994;2022-09-29T19:29:04;1.4;0.9;0.8
72918;PMS7003;61063;55.700;26.994;2022-09-29T19:34:24;1;0.8;0.7
72918;PMS7003;61063;55.700;26.994;2022-09-29T19:39:04;1.3;1.2;1
72918;PMS7003;61063;55.700;26.994;2022-09-29T19:44:26;1.3;1;0.9
72918;PMS7003;61063;55.700;26.994;2022-09-29T19:49:26;1.2;0.9;0.7
72918;PMS7003;61063;55.700;26.994;2022-09-29T19:53:40;1.4;1.2;0.9
72918;PMS7003;61063;55.700;26.994;2022-09-29T19:58:50;1.4;1;0.8
72918;PMS7003;61063;55.700;26.994;2022-09-29T20:04:25;1.8;1.4;1.1
72918;PMS7003;61063;55.700;26.994;2022-09-29T20:08:52;0.8;0.6;0.5
72918;PMS7003;61063;55.700;26.994;2022-09-29T20:14:05;1;0.9;0.7
72918;PMS7003;61063;55.700;26.994;2022-09-29T20:19:24;1.8;1;0.7
72918;PMS7003;61063;55.700;26.994;2022-09-29T20:24:22;1.9;1.1;0.9
72918;PMS7003;61063;55.700;26.994;2022-09-29T20:28:40;2;1.3;1
72918;PMS7003;61063;55.700;26.994;2022-09-29T20:34:24;2.1;1.4;1.3
72918;PMS7003;61063;55.700;26.994;2022-09-29T20:39:22;2;1.5;1.2
72918;PMS7003;61063;55.700;26.994;2022-09-29T20:44:24;2.5;1.6;1.4
72918;PMS7003;61063;55.700;26.994;2022-09-29T20:49:24;2.4;1.7;1.3
72918;PMS7003;61063;55.700;26.994;2022-09-29T20:54:09;2.4;2.3;1.8
72918;PMS7003;61063;55.700;26.994;2022-09-29T20:59:22;3.5;2.7;2.2
72918;PMS7003;61063;55.700;26.994;2022-09-29T21:04:07;3.8;3.5;2.9
72918;PMS7003;61063;55.700;26.994;2022-09-29T21:08:48;5.2;3.7;3
72918;PMS7003;61063;55.700;26.994;2022-09-29T21:14:15;4;3.5;2.9
72918;PMS7003;61063;55.700;26.994;2022-09-29T21:19:08;5.6;4.1;3.2
72918;PMS7003;61063;55.700;26.994;2022-09-29T21:24:10;5.2;4.2;3.4
72918;PMS7003;61063;55.700;26.994;2022-09-29T21:29:24;5;4.5;3.7
72918;PMS7003;61063;55.700;26.994;2022-09-29T21:34:24;4.8;4.2;3.4
72918;PMS7003;61063;55.700;26.994;2022-09-29T21:38:44;5.8;4.6;3.7
72918;PMS7003;61063;55.700;26.994;2022-09-29T21:43:59;5.6;4.9;4.1
72918;PMS7003;61063;55.700;26.994;2022-09-29T21:49:24;5.7;4.9;3.7
72918;PMS7003;61063;55.700;26.994;2022-09-29T21:54:17;5.5;5.1;4
72918;PMS7003;61063;55.700;26.994;2022-09-29T21:59:19;5.6;5;4.2
72918;PMS7003;61063;55.700;26.994;2022-09-29T22:04:24;6.7;5.6;4.4
72918;PMS7003;61063;55.700;26.994;2022-09-29T22:09:18;6.4;5.1;3.9
72918;PMS7003;61063;55.700;26.994;2022-09-29T22:14:24;6.4;5;4
72918;PMS7003;61063;55.700;26.994;2022-09-29T22:18:57;5.2;4.6;3.8
72918;PMS7003;61063;55.700;26.994;2022-09-29T22:23:56;5.6;5;4
72918;PMS7003;61063;55.700;26.994;2022-09-29T22:29:24;5.1;4.2;3.5
72918;PMS7003;61063;55.700;26.994;2022-09-29T22:34:24;5.7;5.1;4.2
72918;PMS7003;61063;55.700;26.994;2022-09-29T22:39:22;6.4;5.2;4
72918;PMS7003;61063;55.700;26.994;2022-09-29T22:44:02;5.1;4.8;3.9
72918;PMS7003;61063;55.700;26.994;2022-09-29T22:49:20;6.2;5.2;4.1
72918;PMS7003;61063;55.700;26.994;2022-09-29T22:54:18;5.8;5.1;4
72918;PMS7003;61063;55.700;26.994;2022-09-29T22:59:04;5.6;4.9;4.1
72918;PMS7003;61063;55.700;26.994;2022-09-29T23:04:20;6.4;5.3;4.3
72918;PMS7003;61063;55.700;26.994;2022-09-29T23:09:18;6.8;5.4;4.4
72918;PMS7003;61063;55.700;26.994;2022-09-29T23:14:08;7.2;4.7;3.6
72918;PMS7003;61063;55.700;26.994;2022-09-29T23:19:20;6;5;4
72918;PMS7003;61063;55.700;26.994;2022-09-29T23:24:20;5.6;4.5;3.4
72918;PMS7003;61063;55.700;26.994;2022-09-29T23:29:14;5.8;4.8;3.9
72918;PMS7003;61063;55.700;26.994;2022-09-29T23:34:07;5.2;5;3.8
72918;PMS7003;61063;55.700;26.994;2022-09-29T23:39:00;6;5;3.8
72918;PMS7003;61063;55.700;26.994;2022-09-29T23:44:04;5.4;4.6;4
72918;PMS7003;61063;55.700;26.994;2022-09-29T23:49:09;7.2;6.1;4.5
72918;PMS7003;61063;55.700;26.994;2022-09-29T23:54:07;6.3;5.6;4.2
72918;PMS7003;61063;55.700;26.994;2022-09-29T23:59:04;7.2;5.8;4.5
